Terminal Aerodrome Forecast
Issued by NWS Bismarck, ND

Home | Current Version | Previous Version | Text Only | Print | Product List | Glossary Off
Versions: 1 2 3 4 5 6 7 8 9 10 11 12 13 14 15 16 17 18 19 20 21 22 23

000
FTUS43 KBIS 201340 AAC
TAFBIS
TAF AMD
KBIS 201340Z 2014/2112 09006KT P6SM OVC006
     FM201500 16007KT P6SM BKN009
     FM201700 16010G19KT P6SM SCT015
     FM202000 18010G17KT P6SM FEW060 SCT200
     FM210500 02006KT P6SM FEW080 SCT200=

USA.gov is the U.S. government's official web portal to all federal, state and local government web resources and services.